sensor_id;sensor_type;location;lat;lon;timestamp;temperature;humidity
13684;DHT22;6914;53.552;9.908;2023-02-11T00:02:10;5.60;99.90
13684;DHT22;6914;53.552;9.908;2023-02-11T00:04:37;5.60;99.90
13684;DHT22;6914;53.552;9.908;2023-02-11T00:07:08;5.50;99.90
13684;DHT22;6914;53.552;9.908;2023-02-11T00:09:36;5.60;99.90
13684;DHT22;6914;53.552;9.908;2023-02-11T00:12:03;5.40;99.90
13684;DHT22;6914;53.552;9.908;2023-02-11T00:14:31;5.60;99.90
13684;DHT22;6914;53.552;9.908;2023-02-11T00:16:58;5.80;99.90
13684;DHT22;6914;53.552;9.908;2023-02-11T00:19:24;5.70;99.90
13684;DHT22;6914;53.552;9.908;2023-02-11T00:21:51;5.70;99.90
13684;DHT22;6914;53.552;9.908;2023-02-11T00:24:20;5.70;99.90
13684;DHT22;6914;53.552;9.908;2023-02-11T00:26:46;5.80;99.90
13684;DHT22;6914;53.552;9.908;2023-02-11T00:29:14;5.60;99.90
13684;DHT22;6914;53.552;9.908;2023-02-11T00:31:41;5.60;99.90
13684;DHT22;6914;53.552;9.908;2023-02-11T00:34:08;5.60;99.90
13684;DHT22;6914;53.552;9.908;2023-02-11T00:36:35;6.60;99.90
13684;DHT22;6914;53.552;9.908;2023-02-11T00:39:03;5.90;99.90
13684;DHT22;6914;53.552;9.908;2023-02-11T00:41:32;5.50;99.90
13684;DHT22;6914;53.552;9.908;2023-02-11T00:43:59;5.70;99.90
13684;DHT22;6914;53.552;9.908;2023-02-11T00:46:26;5.60;99.90
13684;DHT22;6914;53.552;9.908;2023-02-11T00:48:53;5.50;99.90
13684;DHT22;6914;53.552;9.908;2023-02-11T00:51:22;5.50;99.90
13684;DHT22;6914;53.552;9.908;2023-02-11T00:53:49;5.50;99.90
13684;DHT22;6914;53.552;9.908;2023-02-11T00:56:16;5.50;99.90
13684;DHT22;6914;53.552;9.908;2023-02-11T00:58:45;5.40;99.90
13684;DHT22;6914;53.552;9.908;2023-02-11T01:01:14;5.40;99.90
13684;DHT22;6914;53.552;9.908;2023-02-11T01:03:44;5.50;99.90
13684;DHT22;6914;53.552;9.908;2023-02-11T01:06:12;5.50;99.90
13684;DHT22;6914;53.552;9.908;2023-02-11T01:08:59;5.40;99.90
13684;DHT22;6914;53.552;9.908;2023-02-11T01:11:26;5.40;99.90
13684;DHT22;6914;53.552;9.908;2023-02-11T01:13:54;5.50;99.90
13684;DHT22;6914;53.552;9.908;2023-02-11T01:16:21;5.50;99.90
13684;DHT22;6914;53.552;9.908;2023-02-11T01:18:50;5.50;99.90
13684;DHT22;6914;53.552;9.908;2023-02-11T01:21:17;5.50;99.90
13684;DHT22;6914;53.552;9.908;2023-02-11T01:23:45;5.50;99.90
13684;DHT22;6914;53.552;9.908;2023-02-11T01:26:13;5.50;99.90
13684;DHT22;6914;53.552;9.908;2023-02-11T01:28:40;5.80;99.90
13684;DHT22;6914;53.552;9.908;2023-02-11T01:31:11;5.00;99.90
13684;DHT22;6914;53.552;9.908;2023-02-11T01:33:38;5.60;99.90
13684;DHT22;6914;53.552;9.908;2023-02-11T01:36:09;5.50;99.90
13684;DHT22;6914;53.552;9.908;2023-02-11T01:38:39;5.20;99.90
13684;DHT22;6914;53.552;9.908;2023-02-11T01:41:12;5.60;99.90
13684;DHT22;6914;53.552;9.908;2023-02-11T01:43:42;5.70;99.90
13684;DHT22;6914;53.552;9.908;2023-02-11T01:46:32;5.70;99.90
13684;DHT22;6914;53.552;9.908;2023-02-11T01:49:03;5.60;99.90
13684;DHT22;6914;53.552;9.908;2023-02-11T01:51:35;5.30;99.90
13684;DHT22;6914;53.552;9.908;2023-02-11T01:54:06;5.40;99.90
13684;DHT22;6914;53.552;9.908;2023-02-11T01:56:54;5.50;99.90
13684;DHT22;6914;53.552;9.908;2023-02-11T02:02:25;5.60;99.90
13684;DHT22;6914;53.552;9.908;2023-02-11T02:04:59;5.70;99.90
13684;DHT22;6914;53.552;9.908;2023-02-11T02:07:32;5.60;99.90
13684;DHT22;6914;53.552;9.908;2023-02-11T02:10:03;5.60;99.90
13684;DHT22;6914;53.552;9.908;2023-02-11T02:12:33;5.60;99.90
13684;DHT22;6914;53.552;9.908;2023-02-11T02:15:24;5.60;99.90
13684;DHT22;6914;53.552;9.908;2023-02-11T02:17:57;4.80;99.90
13684;DHT22;6914;53.552;9.908;2023-02-11T02:21:00;5.70;99.90
13684;DHT22;6914;53.552;9.908;2023-02-11T02:24:07;5.30;99.90
13684;DHT22;6914;53.552;9.908;2023-02-11T02:33:29;4.80;99.90
13684;DHT22;6914;53.552;9.908;2023-02-11T02:36:05;5.70;99.90
13684;DHT22;6914;53.552;9.908;2023-02-11T02:38:36;6.30;99.90
13684;DHT22;6914;53.552;9.908;2023-02-11T02:41:07;5.60;99.90
13684;DHT22;6914;53.552;9.908;2023-02-11T02:43:40;5.70;99.90
13684;DHT22;6914;53.552;9.908;2023-02-11T02:46:12;5.80;99.90
13684;DHT22;6914;53.552;9.908;2023-02-11T02:48:42;5.50;99.90
13684;DHT22;6914;53.552;9.908;2023-02-11T02:51:21;6.00;99.90
13684;DHT22;6914;53.552;9.908;2023-02-11T02:54:01;5.80;99.90
13684;DHT22;6914;53.552;9.908;2023-02-11T02:56:38;5.80;99.90
13684;DHT22;6914;53.552;9.908;2023-02-11T02:59:22;5.70;99.90
13684;DHT22;6914;53.552;9.908;2023-02-11T03:02:01;6.60;99.90
13684;DHT22;6914;53.552;9.908;2023-02-11T03:04:35;5.80;99.90
13684;DHT22;6914;53.552;9.908;2023-02-11T03:07:09;5.70;99.90
13684;DHT22;6914;53.552;9.908;2023-02-11T03:09:41;5.80;99.90
13684;DHT22;6914;53.552;9.908;2023-02-11T03:12:11;5.80;99.90
13684;DHT22;6914;53.552;9.908;2023-02-11T03:14:40;5.80;99.90
13684;DHT22;6914;53.552;9.908;2023-02-11T03:17:09;5.80;99.90
13684;DHT22;6914;53.552;9.908;2023-02-11T03:19:39;5.80;99.90
13684;DHT22;6914;53.552;9.908;2023-02-11T03:22:13;5.90;99.90
13684;DHT22;6914;53.552;9.908;2023-02-11T03:24:42;5.80;99.90
13684;DHT22;6914;53.552;9.908;2023-02-11T03:27:16;5.80;99.90
13684;DHT22;6914;53.552;9.908;2023-02-11T03:29:50;5.80;99.90
13684;DHT22;6914;53.552;9.908;2023-02-11T03:32:23;5.80;99.90
13684;DHT22;6914;53.552;9.908;2023-02-11T03:34:55;5.80;99.90
13684;DHT22;6914;53.552;9.908;2023-02-11T03:37:26;5.80;99.90
13684;DHT22;6914;53.552;9.908;2023-02-11T03:39:58;5.90;99.90
13684;DHT22;6914;53.552;9.908;2023-02-11T03:42:29;5.80;99.90
13684;DHT22;6914;53.552;9.908;2023-02-11T03:45:02;5.30;99.90
13684;DHT22;6914;53.552;9.908;2023-02-11T03:47:32;5.90;99.90
13684;DHT22;6914;53.552;9.908;2023-02-11T03:50:02;6.00;99.90
13684;DHT22;6914;53.552;9.908;2023-02-11T03:52:31;5.80;99.90
13684;DHT22;6914;53.552;9.908;2023-02-11T03:55:00;6.00;99.90
13684;DHT22;6914;53.552;9.908;2023-02-11T03:57:29;6.00;99.90
13684;DHT22;6914;53.552;9.908;2023-02-11T03:59:58;6.00;99.90
13684;DHT22;6914;53.552;9.908;2023-02-11T04:02:29;6.10;99.90
13684;DHT22;6914;53.552;9.908;2023-02-11T04:04:56;6.10;99.90
13684;DHT22;6914;53.552;9.908;2023-02-11T04:07:25;6.20;99.90
13684;DHT22;6914;53.552;9.908;2023-02-11T04:09:52;6.20;99.90
13684;DHT22;6914;53.552;9.908;2023-02-11T04:12:19;7.90;99.90
13684;DHT22;6914;53.552;9.908;2023-02-11T04:14:46;6.30;99.90
13684;DHT22;6914;53.552;9.908;2023-02-11T04:17:13;6.20;99.90
13684;DHT22;6914;53.552;9.908;2023-02-11T04:19:40;6.50;99.90
13684;DHT22;6914;53.552;9.908;2023-02-11T04:22:07;6.40;99.90
13684;DHT22;6914;53.552;9.908;2023-02-11T04:24:38;6.40;99.90
13684;DHT22;6914;53.552;9.908;2023-02-11T04:27:05;6.20;99.90
13684;DHT22;6914;53.552;9.908;2023-02-11T04:29:32;6.50;99.90
13684;DHT22;6914;53.552;9.908;2023-02-11T04:31:59;6.50;99.90
13684;DHT22;6914;53.552;9.908;2023-02-11T04:34:26;6.50;99.90
13684;DHT22;6914;53.552;9.908;2023-02-11T04:36:53;6.50;99.90
13684;DHT22;6914;53.552;9.908;2023-02-11T04:39:20;6.50;99.90
13684;DHT22;6914;53.552;9.908;2023-02-11T04:41:48;6.40;99.90
13684;DHT22;6914;53.552;9.908;2023-02-11T04:44:16;6.40;99.90
13684;DHT22;6914;53.552;9.908;2023-02-11T04:46:43;6.50;99.90
13684;DHT22;6914;53.552;9.908;2023-02-11T04:49:12;6.70;99.90
13684;DHT22;6914;53.552;9.908;2023-02-11T04:51:39;6.40;99.90
13684;DHT22;6914;53.552;9.908;2023-02-11T04:54:06;6.60;99.90
13684;DHT22;6914;53.552;9.908;2023-02-11T04:56:34;6.50;99.90
13684;DHT22;6914;53.552;9.908;2023-02-11T04:59:02;6.50;99.90
13684;DHT22;6914;53.552;9.908;2023-02-11T05:01:30;6.70;99.90
13684;DHT22;6914;53.552;9.908;2023-02-11T05:03:57;5.40;99.90
13684;DHT22;6914;53.552;9.908;2023-02-11T05:06:24;6.60;99.90
13684;DHT22;6914;53.552;9.908;2023-02-11T05:08:51;6.60;99.90
13684;DHT22;6914;53.552;9.908;2023-02-11T05:11:20;6.50;99.90
13684;DHT22;6914;53.552;9.908;2023-02-11T05:13:47;6.60;99.90
13684;DHT22;6914;53.552;9.908;2023-02-11T05:16:16;6.60;99.90
13684;DHT22;6914;53.552;9.908;2023-02-11T05:18:44;6.60;99.90
13684;DHT22;6914;53.552;9.908;2023-02-11T05:21:14;6.60;99.90
13684;DHT22;6914;53.552;9.908;2023-02-11T05:23:41;6.40;99.90
13684;DHT22;6914;53.552;9.908;2023-02-11T05:26:12;6.10;99.90
13684;DHT22;6914;53.552;9.908;2023-02-11T05:28:40;7.40;99.90
13684;DHT22;6914;53.552;9.908;2023-02-11T05:31:07;6.60;99.90
13684;DHT22;6914;53.552;9.908;2023-02-11T05:33:36;6.40;99.90
13684;DHT22;6914;53.552;9.908;2023-02-11T05:36:06;6.40;99.90
13684;DHT22;6914;53.552;9.908;2023-02-11T05:38:33;6.50;99.90
13684;DHT22;6914;53.552;9.908;2023-02-11T05:41:00;5.80;99.90
13684;DHT22;6914;53.552;9.908;2023-02-11T05:43:28;6.70;99.90
13684;DHT22;6914;53.552;9.908;2023-02-11T05:45:54;6.40;99.90
13684;DHT22;6914;53.552;9.908;2023-02-11T05:48:21;6.50;99.90
13684;DHT22;6914;53.552;9.908;2023-02-11T05:50:49;6.70;99.90
13684;DHT22;6914;53.552;9.908;2023-02-11T05:53:16;6.40;99.90
13684;DHT22;6914;53.552;9.908;2023-02-11T05:55:43;6.50;99.90
13684;DHT22;6914;53.552;9.908;2023-02-11T05:58:10;6.50;99.90
13684;DHT22;6914;53.552;9.908;2023-02-11T06:00:38;6.60;99.90
13684;DHT22;6914;53.552;9.908;2023-02-11T06:03:05;6.60;99.90
13684;DHT22;6914;53.552;9.908;2023-02-11T06:05:32;6.40;99.90
13684;DHT22;6914;53.552;9.908;2023-02-11T06:08:02;6.40;99.90
13684;DHT22;6914;53.552;9.908;2023-02-11T06:10:29;6.60;99.90
13684;DHT22;6914;53.552;9.908;2023-02-11T06:12:56;6.60;99.90
13684;DHT22;6914;53.552;9.908;2023-02-11T06:15:23;6.60;99.90
13684;DHT22;6914;53.552;9.908;2023-02-11T06:17:49;6.60;99.90
13684;DHT22;6914;53.552;9.908;2023-02-11T06:20:16;6.80;99.90
13684;DHT22;6914;53.552;9.908;2023-02-11T06:22:44;6.70;99.90
13684;DHT22;6914;53.552;9.908;2023-02-11T06:25:13;7.20;99.90
13684;DHT22;6914;53.552;9.908;2023-02-11T06:27:40;6.70;99.90
13684;DHT22;6914;53.552;9.908;2023-02-11T06:30:08;6.60;99.90
13684;DHT22;6914;53.552;9.908;2023-02-11T06:32:36;6.80;99.90
13684;DHT22;6914;53.552;9.908;2023-02-11T06:35:03;6.80;99.90
13684;DHT22;6914;53.552;9.908;2023-02-11T06:37:30;6.80;99.90
13684;DHT22;6914;53.552;9.908;2023-02-11T06:39:57;6.90;99.90
13684;DHT22;6914;53.552;9.908;2023-02-11T06:42:25;6.80;99.90
13684;DHT22;6914;53.552;9.908;2023-02-11T06:44:52;6.70;99.90
13684;DHT22;6914;53.552;9.908;2023-02-11T06:47:19;6.90;99.90
13684;DHT22;6914;53.552;9.908;2023-02-11T06:49:46;7.10;99.90
13684;DHT22;6914;53.552;9.908;2023-02-11T06:52:13;6.70;99.90
13684;DHT22;6914;53.552;9.908;2023-02-11T06:54:40;6.90;99.90
13684;DHT22;6914;53.552;9.908;2023-02-11T06:57:07;7.10;99.90
13684;DHT22;6914;53.552;9.908;2023-02-11T06:59:36;6.80;99.90
13684;DHT22;6914;53.552;9.908;2023-02-11T07:02:02;6.50;99.90
13684;DHT22;6914;53.552;9.908;2023-02-11T07:04:29;6.80;99.90
13684;DHT22;6914;53.552;9.908;2023-02-11T07:06:56;6.80;99.90
13684;DHT22;6914;53.552;9.908;2023-02-11T07:09:23;6.80;99.90
13684;DHT22;6914;53.552;9.908;2023-02-11T07:11:50;6.60;99.90
13684;DHT22;6914;53.552;9.908;2023-02-11T07:14:16;6.70;99.90
13684;DHT22;6914;53.552;9.908;2023-02-11T07:16:45;6.80;99.90
13684;DHT22;6914;53.552;9.908;2023-02-11T07:19:14;7.30;99.90
13684;DHT22;6914;53.552;9.908;2023-02-11T07:21:41;6.80;99.90
13684;DHT22;6914;53.552;9.908;2023-02-11T07:24:10;6.80;99.90
13684;DHT22;6914;53.552;9.908;2023-02-11T07:26:40;7.00;99.90
13684;DHT22;6914;53.552;9.908;2023-02-11T07:29:07;6.70;99.90
13684;DHT22;6914;53.552;9.908;2023-02-11T07:31:34;7.00;99.90
13684;DHT22;6914;53.552;9.908;2023-02-11T07:34:02;6.60;99.90
13684;DHT22;6914;53.552;9.908;2023-02-11T07:36:30;6.80;99.90
13684;DHT22;6914;53.552;9.908;2023-02-11T07:38:57;6.70;99.90
13684;DHT22;6914;53.552;9.908;2023-02-11T07:41:24;6.70;99.90
13684;DHT22;6914;53.552;9.908;2023-02-11T07:43:51;6.80;99.90
13684;DHT22;6914;53.552;9.908;2023-02-11T07:46:20;6.80;99.90
13684;DHT22;6914;53.552;9.908;2023-02-11T07:48:47;6.70;99.90
13684;DHT22;6914;53.552;9.908;2023-02-11T07:51:19;6.90;99.90
13684;DHT22;6914;53.552;9.908;2023-02-11T07:53:46;6.80;99.90
13684;DHT22;6914;53.552;9.908;2023-02-11T07:56:17;6.50;99.90
13684;DHT22;6914;53.552;9.908;2023-02-11T07:58:44;6.80;99.90
13684;DHT22;6914;53.552;9.908;2023-02-11T08:01:13;7.70;99.90
13684;DHT22;6914;53.552;9.908;2023-02-11T08:03:42;6.90;99.90
13684;DHT22;6914;53.552;9.908;2023-02-11T08:06:10;6.70;99.90
13684;DHT22;6914;53.552;9.908;2023-02-11T08:08:39;6.90;99.90
13684;DHT22;6914;53.552;9.908;2023-02-11T08:11:07;7.00;99.90
13684;DHT22;6914;53.552;9.908;2023-02-11T08:13:35;7.10;99.90
13684;DHT22;6914;53.552;9.908;2023-02-11T08:16:02;7.00;99.90
13684;DHT22;6914;53.552;9.908;2023-02-11T08:18:29;7.00;99.90
13684;DHT22;6914;53.552;9.908;2023-02-11T08:21:03;6.80;99.90
13684;DHT22;6914;53.552;9.908;2023-02-11T08:23:29;7.00;99.90
13684;DHT22;6914;53.552;9.908;2023-02-11T08:26:01;7.00;99.90
13684;DHT22;6914;53.552;9.908;2023-02-11T08:28:28;6.80;99.90
13684;DHT22;6914;53.552;9.908;2023-02-11T08:30:56;7.00;99.90
13684;DHT22;6914;53.552;9.908;2023-02-11T08:33:22;7.00;99.90
13684;DHT22;6914;53.552;9.908;2023-02-11T08:35:49;7.00;99.90
13684;DHT22;6914;53.552;9.908;2023-02-11T08:38:17;5.40;99.90
13684;DHT22;6914;53.552;9.908;2023-02-11T08:40:43;7.50;99.90
13684;DHT22;6914;53.552;9.908;2023-02-11T08:43:12;7.10;99.90
13684;DHT22;6914;53.552;9.908;2023-02-11T08:45:39;6.10;99.90
13684;DHT22;6914;53.552;9.908;2023-02-11T08:48:06;7.10;99.90
13684;DHT22;6914;53.552;9.908;2023-02-11T08:50:33;6.90;99.90
13684;DHT22;6914;53.552;9.908;2023-02-11T08:53:03;7.10;99.90
13684;DHT22;6914;53.552;9.908;2023-02-11T08:55:30;7.20;99.90
13684;DHT22;6914;53.552;9.908;2023-02-11T08:57:57;7.10;99.90
13684;DHT22;6914;53.552;9.908;2023-02-11T09:00:25;7.00;99.90
13684;DHT22;6914;53.552;9.908;2023-02-11T09:02:52;7.00;99.90
13684;DHT22;6914;53.552;9.908;2023-02-11T09:05:19;7.30;99.90
13684;DHT22;6914;53.552;9.908;2023-02-11T09:07:47;4.90;99.90
13684;DHT22;6914;53.552;9.908;2023-02-11T09:10:14;6.90;99.90
13684;DHT22;6914;53.552;9.908;2023-02-11T09:12:43;7.50;99.90
13684;DHT22;6914;53.552;9.908;2023-02-11T09:15:10;6.30;99.90
13684;DHT22;6914;53.552;9.908;2023-02-11T09:17:38;8.30;99.90
13684;DHT22;6914;53.552;9.908;2023-02-11T09:20:06;7.20;99.90
13684;DHT22;6914;53.552;9.908;2023-02-11T09:22:33;7.20;99.90
13684;DHT22;6914;53.552;9.908;2023-02-11T09:25:00;7.70;99.90
13684;DHT22;6914;53.552;9.908;2023-02-11T09:27:27;7.20;99.90
13684;DHT22;6914;53.552;9.908;2023-02-11T09:29:54;7.20;99.90
13684;DHT22;6914;53.552;9.908;2023-02-11T09:32:20;7.10;99.90
13684;DHT22;6914;53.552;9.908;2023-02-11T09:34:49;7.00;99.90
13684;DHT22;6914;53.552;9.908;2023-02-11T09:37:17;7.40;99.90
13684;DHT22;6914;53.552;9.908;2023-02-11T09:39:44;7.30;99.90
13684;DHT22;6914;53.552;9.908;2023-02-11T09:42:35;7.00;99.90
13684;DHT22;6914;53.552;9.908;2023-02-11T09:45:04;6.60;99.90
13684;DHT22;6914;53.552;9.908;2023-02-11T09:47:42;7.80;99.90
13684;DHT22;6914;53.552;9.908;2023-02-11T09:50:14;7.10;99.90
13684;DHT22;6914;53.552;9.908;2023-02-11T09:52:48;7.30;99.90
13684;DHT22;6914;53.552;9.908;2023-02-11T09:55:20;6.90;99.90
13684;DHT22;6914;53.552;9.908;2023-02-11T09:57:48;7.20;99.90
13684;DHT22;6914;53.552;9.908;2023-02-11T10:00:20;7.10;99.90
13684;DHT22;6914;53.552;9.908;2023-02-11T10:03:00;7.40;99.90
13684;DHT22;6914;53.552;9.908;2023-02-11T10:05:42;7.50;99.90
13684;DHT22;6914;53.552;9.908;2023-02-11T10:08:18;7.70;99.90
13684;DHT22;6914;53.552;9.908;2023-02-11T10:10:50;7.60;99.90
13684;DHT22;6914;53.552;9.908;2023-02-11T10:13:34;7.50;99.90
13684;DHT22;6914;53.552;9.908;2023-02-11T10:16:13;8.30;99.90
13684;DHT22;6914;53.552;9.908;2023-02-11T10:19:08;7.00;99.90
13684;DHT22;6914;53.552;9.908;2023-02-11T10:21:47;7.90;99.90
13684;DHT22;6914;53.552;9.908;2023-02-11T10:24:19;7.10;99.90
13684;DHT22;6914;53.552;9.908;2023-02-11T10:26:47;7.60;99.90
13684;DHT22;6914;53.552;9.908;2023-02-11T10:29:25;7.60;99.90
13684;DHT22;6914;53.552;9.908;2023-02-11T10:31:57;7.30;99.90
13684;DHT22;6914;53.552;9.908;2023-02-11T10:34:24;9.30;99.90
13684;DHT22;6914;53.552;9.908;2023-02-11T10:36:52;7.80;99.90
13684;DHT22;6914;53.552;9.908;2023-02-11T10:39:21;7.80;99.90
13684;DHT22;6914;53.552;9.908;2023-02-11T10:41:51;8.00;99.90
13684;DHT22;6914;53.552;9.908;2023-02-11T10:44:23;7.80;99.90
13684;DHT22;6914;53.552;9.908;2023-02-11T10:46:52;8.30;99.90
13684;DHT22;6914;53.552;9.908;2023-02-11T10:49:35;7.60;99.90
13684;DHT22;6914;53.552;9.908;2023-02-11T10:52:19;7.80;99.90
13684;DHT22;6914;53.552;9.908;2023-02-11T10:55:02;7.60;99.90
13684;DHT22;6914;53.552;9.908;2023-02-11T10:57:33;7.40;99.90
13684;DHT22;6914;53.552;9.908;2023-02-11T11:00:05;8.10;99.90
13684;DHT22;6914;53.552;9.908;2023-02-11T11:02:35;7.90;99.90
13684;DHT22;6914;53.552;9.908;2023-02-11T11:05:05;7.70;99.90
13684;DHT22;6914;53.552;9.908;2023-02-11T11:07:53;7.60;99.90
13684;DHT22;6914;53.552;9.908;2023-02-11T11:10:39;9.00;99.90
13684;DHT22;6914;53.552;9.908;2023-02-11T11:13:23;9.30;99.90
13684;DHT22;6914;53.552;9.908;2023-02-11T11:16:17;7.80;99.90
13684;DHT22;6914;53.552;9.908;2023-02-11T11:19:22;8.10;99.90
13684;DHT22;6914;53.552;9.908;2023-02-11T11:21:50;7.90;99.90
13684;DHT22;6914;53.552;9.908;2023-02-11T11:24:25;7.80;99.90
13684;DHT22;6914;53.552;9.908;2023-02-11T11:26:55;7.60;99.90
13684;DHT22;6914;53.552;9.908;2023-02-11T11:29:28;6.70;99.90
13684;DHT22;6914;53.552;9.908;2023-02-11T11:32:00;7.70;99.90
13684;DHT22;6914;53.552;9.908;2023-02-11T11:34:31;9.30;99.90
13684;DHT22;6914;53.552;9.908;2023-02-11T11:37:01;7.30;99.90
13684;DHT22;6914;53.552;9.908;2023-02-11T11:39:38;9.00;99.90
13684;DHT22;6914;53.552;9.908;2023-02-11T11:42:25;7.80;99.90
13684;DHT22;6914;53.552;9.908;2023-02-11T11:44:56;7.30;99.90
13684;DHT22;6914;53.552;9.908;2023-02-11T11:47:37;8.00;99.90
13684;DHT22;6914;53.552;9.908;2023-02-11T11:50:22;7.80;99.90
13684;DHT22;6914;53.552;9.908;2023-02-11T11:52:58;7.70;99.90
13684;DHT22;6914;53.552;9.908;2023-02-11T11:55:32;7.70;99.90
13684;DHT22;6914;53.552;9.908;2023-02-11T11:58:00;7.90;99.90
13684;DHT22;6914;53.552;9.908;2023-02-11T12:00:36;7.70;99.90
13684;DHT22;6914;53.552;9.908;2023-02-11T12:03:28;7.90;99.90
13684;DHT22;6914;53.552;9.908;2023-02-11T12:06:21;8.00;99.90
13684;DHT22;6914;53.552;9.908;2023-02-11T12:08:59;7.80;99.90
13684;DHT22;6914;53.552;9.908;2023-02-11T12:11:51;7.80;99.90
13684;DHT22;6914;53.552;9.908;2023-02-11T12:14:25;7.90;99.90
13684;DHT22;6914;53.552;9.908;2023-02-11T12:17:02;7.90;99.90
13684;DHT22;6914;53.552;9.908;2023-02-11T12:19:53;7.90;99.90
13684;DHT22;6914;53.552;9.908;2023-02-11T12:22:33;8.50;99.90
13684;DHT22;6914;53.552;9.908;2023-02-11T12:25:16;8.10;99.90
13684;DHT22;6914;53.552;9.908;2023-02-11T12:27:55;7.80;99.90
13684;DHT22;6914;53.552;9.908;2023-02-11T12:30:40;7.90;99.90
13684;DHT22;6914;53.552;9.908;2023-02-11T12:33:20;8.30;99.90
13684;DHT22;6914;53.552;9.908;2023-02-11T12:35:54;7.90;99.90
13684;DHT22;6914;53.552;9.908;2023-02-11T12:38:44;8.00;99.90
13684;DHT22;6914;53.552;9.908;2023-02-11T12:41:24;7.70;99.90
13684;DHT22;6914;53.552;9.908;2023-02-11T12:44:21;8.20;99.90
13684;DHT22;6914;53.552;9.908;2023-02-11T12:46:54;8.20;99.90
13684;DHT22;6914;53.552;9.908;2023-02-11T12:49:33;8.10;99.90
13684;DHT22;6914;53.552;9.908;2023-02-11T12:55:01;8.30;99.90
13684;DHT22;6914;53.552;9.908;2023-02-11T12:57:31;7.30;99.90
13684;DHT22;6914;53.552;9.908;2023-02-11T13:00:05;8.20;99.90
13684;DHT22;6914;53.552;9.908;2023-02-11T13:02:38;8.30;99.90
13684;DHT22;6914;53.552;9.908;2023-02-11T13:05:25;8.00;99.90
13684;DHT22;6914;53.552;9.908;2023-02-11T13:07:55;10.60;99.90
13684;DHT22;6914;53.552;9.908;2023-02-11T13:10:26;8.60;99.90
13684;DHT22;6914;53.552;9.908;2023-02-11T13:12:55;9.10;99.90
13684;DHT22;6914;53.552;9.908;2023-02-11T13:15:55;8.10;99.90
13684;DHT22;6914;53.552;9.908;2023-02-11T13:19:00;8.10;99.90
13684;DHT22;6914;53.552;9.908;2023-02-11T13:21:59;8.10;99.90
13684;DHT22;6914;53.552;9.908;2023-02-11T13:24:33;7.80;99.90
13684;DHT22;6914;53.552;9.908;2023-02-11T13:27:09;7.90;99.90
13684;DHT22;6914;53.552;9.908;2023-02-11T13:30:07;8.10;99.90
13684;DHT22;6914;53.552;9.908;2023-02-11T13:36:10;8.20;99.90
13684;DHT22;6914;53.552;9.908;2023-02-11T13:38:38;8.50;99.90
13684;DHT22;6914;53.552;9.908;2023-02-11T13:41:17;8.10;99.90
13684;DHT22;6914;53.552;9.908;2023-02-11T13:43:57;7.80;99.90
13684;DHT22;6914;53.552;9.908;2023-02-11T13:46:25;6.90;99.90
13684;DHT22;6914;53.552;9.908;2023-02-11T13:48:53;8.20;99.90
13684;DHT22;6914;53.552;9.908;2023-02-11T13:51:34;8.10;99.90
13684;DHT22;6914;53.552;9.908;2023-02-11T13:54:03;8.10;99.90
13684;DHT22;6914;53.552;9.908;2023-02-11T13:56:32;8.00;99.90
13684;DHT22;6914;53.552;9.908;2023-02-11T13:59:00;8.40;99.90
13684;DHT22;6914;53.552;9.908;2023-02-11T14:02:02;8.10;99.90
13684;DHT22;6914;53.552;9.908;2023-02-11T14:05:25;8.20;99.90
13684;DHT22;6914;53.552;9.908;2023-02-11T14:08:20;8.20;99.90
13684;DHT22;6914;53.552;9.908;2023-02-11T14:11:07;8.20;99.90
13684;DHT22;6914;53.552;9.908;2023-02-11T14:14:02;8.00;99.90
13684;DHT22;6914;53.552;9.908;2023-02-11T14:16:30;9.00;99.90
13684;DHT22;6914;53.552;9.908;2023-02-11T14:19:00;8.20;99.90
13684;DHT22;6914;53.552;9.908;2023-02-11T14:21:36;8.10;99.90
13684;DHT22;6914;53.552;9.908;2023-02-11T14:27:13;8.20;99.90
13684;DHT22;6914;53.552;9.908;2023-02-11T14:29:54;7.60;99.90
13684;DHT22;6914;53.552;9.908;2023-02-11T14:32:37;9.50;99.90
13684;DHT22;6914;53.552;9.908;2023-02-11T14:35:11;8.40;99.90
13684;DHT22;6914;53.552;9.908;2023-02-11T14:37:46;8.30;99.90
13684;DHT22;6914;53.552;9.908;2023-02-11T14:40:21;8.30;99.90
13684;DHT22;6914;53.552;9.908;2023-02-11T14:42:52;6.70;99.90
13684;DHT22;6914;53.552;9.908;2023-02-11T14:45:25;8.20;99.90
13684;DHT22;6914;53.552;9.908;2023-02-11T14:47:56;8.40;99.90
13684;DHT22;6914;53.552;9.908;2023-02-11T14:50:25;8.20;99.90
13684;DHT22;6914;53.552;9.908;2023-02-11T14:52:54;8.40;99.90
13684;DHT22;6914;53.552;9.908;2023-02-11T14:55:28;8.30;99.90
13684;DHT22;6914;53.552;9.908;2023-02-11T14:58:14;8.10;99.90
13684;DHT22;6914;53.552;9.908;2023-02-11T15:00:50;8.30;99.90
13684;DHT22;6914;53.552;9.908;2023-02-11T15:03:29;8.30;99.90
13684;DHT22;6914;53.552;9.908;2023-02-11T15:05:58;8.00;99.90
13684;DHT22;6914;53.552;9.908;2023-02-11T15:08:26;8.20;99.90
13684;DHT22;6914;53.552;9.908;2023-02-11T15:10:54;8.70;99.90
13684;DHT22;6914;53.552;9.908;2023-02-11T15:13:24;8.30;99.90
13684;DHT22;6914;53.552;9.908;2023-02-11T15:15:58;8.20;99.90
13684;DHT22;6914;53.552;9.908;2023-02-11T15:18:31;8.20;99.90
13684;DHT22;6914;53.552;9.908;2023-02-11T15:20:59;6.80;99.90
13684;DHT22;6914;53.552;9.908;2023-02-11T15:23:27;8.10;99.90
13684;DHT22;6914;53.552;9.908;2023-02-11T15:25:55;8.10;99.90
13684;DHT22;6914;53.552;9.908;2023-02-11T15:28:25;8.50;99.90
13684;DHT22;6914;53.552;9.908;2023-02-11T15:31:00;7.70;99.90
13684;DHT22;6914;53.552;9.908;2023-02-11T15:33:29;7.60;99.90
13684;DHT22;6914;53.552;9.908;2023-02-11T15:35:57;7.90;99.90
13684;DHT22;6914;53.552;9.908;2023-02-11T15:38:24;8.00;99.90
13684;DHT22;6914;53.552;9.908;2023-02-11T15:40:54;7.80;99.90
13684;DHT22;6914;53.552;9.908;2023-02-11T15:43:23;7.50;99.90
13684;DHT22;6914;53.552;9.908;2023-02-11T15:45:57;7.80;99.90
13684;DHT22;6914;53.552;9.908;2023-02-11T15:48:33;7.70;99.90
13684;DHT22;6914;53.552;9.908;2023-02-11T15:51:02;7.60;99.90
13684;DHT22;6914;53.552;9.908;2023-02-11T15:53:35;8.30;99.90
13684;DHT22;6914;53.552;9.908;2023-02-11T15:56:09;7.80;99.90
13684;DHT22;6914;53.552;9.908;2023-02-11T15:58:40;7.60;99.90
13684;DHT22;6914;53.552;9.908;2023-02-11T16:01:10;7.80;99.90
13684;DHT22;6914;53.552;9.908;2023-02-11T16:03:37;7.70;99.90
13684;DHT22;6914;53.552;9.908;2023-02-11T16:06:20;7.60;99.90
13684;DHT22;6914;53.552;9.908;2023-02-11T16:09:00;7.70;99.90
13684;DHT22;6914;53.552;9.908;2023-02-11T16:11:29;7.70;99.90
13684;DHT22;6914;53.552;9.908;2023-02-11T16:13:59;9.20;99.90
13684;DHT22;6914;53.552;9.908;2023-02-11T16:16:28;7.70;99.90
13684;DHT22;6914;53.552;9.908;2023-02-11T16:18:56;7.60;99.90
13684;DHT22;6914;53.552;9.908;2023-02-11T16:21:28;7.50;99.90
13684;DHT22;6914;53.552;9.908;2023-02-11T16:23:58;7.30;99.90
13684;DHT22;6914;53.552;9.908;2023-02-11T16:26:29;7.60;99.90
13684;DHT22;6914;53.552;9.908;2023-02-11T16:29:10;7.40;99.90
13684;DHT22;6914;53.552;9.908;2023-02-11T16:31:40;7.60;99.90
13684;DHT22;6914;53.552;9.908;2023-02-11T16:34:13;7.40;99.90
13684;DHT22;6914;53.552;9.908;2023-02-11T16:36:41;7.70;99.90
13684;DHT22;6914;53.552;9.908;2023-02-11T16:39:09;9.60;99.90
13684;DHT22;6914;53.552;9.908;2023-02-11T16:41:37;7.60;99.90
13684;DHT22;6914;53.552;9.908;2023-02-11T16:44:05;7.70;99.90
13684;DHT22;6914;53.552;9.908;2023-02-11T16:46:35;8.00;99.90
13684;DHT22;6914;53.552;9.908;2023-02-11T16:49:09;7.70;99.90
13684;DHT22;6914;53.552;9.908;2023-02-11T16:51:39;7.70;99.90
13684;DHT22;6914;53.552;9.908;2023-02-11T16:54:12;7.70;99.90